Marco Polo — BR2031 — position and weather

sailwx.info

Track history (hours):
 
Tides and Currents Weather Stations Pressure Air Temp Water Temp Dewpoint Dewpoint Depression Visibility Wind Speed Wind Dir Waves Ship Positions

Marco Polo

Last reported at 2015-May-23 10:31 UTC. Time now 2015-May-23 13:27 UTC.
Position N 24°25' E 118°17'.

Length 32 m.

MMSI: 416000256.

Date/timePositionNaut miles runAvg speedWind from/ knotsBaromVisibWave heightAir tempDewpointWater temp
2015-May-23 10:31N 24°25' E 118°17'0 0.0
2015-May-23 09:33N 24°25' E 118°17'9 8.7
2015-May-23 08:31N 24°32' E 118°11'9 9.1
2015-May-23 07:32N 24°25' E 118°17'0 0.0
2015-May-23 06:33N 24°25' E 118°17'8 7.6
2015-May-23 05:33N 24°31' E 118°13'2 1.6
2015-May-23 04:32N 24°32' E 118°11'9 9.2
2015-May-23 03:33N 24°25' E 118°17'0 0.0
2015-May-23 02:33N 24°25' E 118°17'0 0.0
2015-May-22 08:17N 24°25' E 118°17'810.2
2015-May-22 07:32N 24°32' E 118°12'1 1.3
2015-May-22 06:33N 24°32' E 118°11'9 8.9
2015-May-22 05:33N 24°25' E 118°17'0 0.4
2015-May-22 04:25N 24°25' E 118°17'0 0.0
2015-May-22 03:31N 24°25' E 118°17'3 2.7
2015-May-22 02:32N 24°28' E 118°17'5 5.1
2015-May-22 01:33N 24°32' E 118°13'8 8.0
2015-May-22 00:33N 24°25' E 118°17'0 0.0
2015-May-21 23:33N 24°25' E 118°17'0 0.0
2015-May-21 22:31N 24°25' E 118°17'0 0.0
2015-May-21 21:32N 24°25' E 118°17'0 0.0
2015-May-21 20:33N 24°25' E 118°17'0 0.0
2015-May-21 19:32N 24°25' E 118°17'0 0.0
2015-May-21 18:33N 24°25' E 118°17'0 0.0
2015-May-21 17:33N 24°25' E 118°17'0 0.0
2015-May-21 16:32N 24°25' E 118°17'0 0.0
2015-May-21 15:33N 24°25' E 118°17'0 0.0
2015-May-21 14:32N 24°25' E 118°17'0 0.0
2015-May-21 10:31N 24°25' E 118°17'9 9.2
2015-May-21 09:33N 24°32' E 118°11'9 8.5
2015-May-21 08:31N 24°25' E 118°17'0 0.3
2015-May-21 07:32N 24°25' E 118°17'0 0.1
2015-May-21 06:33N 24°25' E 118°17'0 0.0
2015-May-21 05:33N 24°25' E 118°17'0 0.0
2015-May-21 04:33N 24°25' E 118°17'8 7.5
2015-May-21 03:32N 24°32' E 118°12'0 0.5
2015-May-21 02:33N 24°32' E 118°12'8 8.3
2015-May-21 01:32N 24°25' E 118°17'0 0.1
2015-May-21 00:33N 24°25' E 118°17'0 0.0
2015-May-20 23:31N 24°25' E 118°17'0 0.0
2015-May-20 22:33N 24°25' E 118°17'0 0.0
2015-May-20 21:32N 24°25' E 118°17'0 0.0
2015-May-20 20:33N 24°25' E 118°17'0 0.0
2015-May-20 19:33N 24°25' E 118°17'0 0.0
2015-May-20 18:32N 24°25' E 118°17'0 0.0
2015-May-20 17:30N 24°25' E 118°17'0 0.0
2015-May-20 16:33N 24°25' E 118°17'0 0.0
2015-May-20 15:32N 24°25' E 118°17'0 0.0
2015-May-20 14:32N 24°25' E 118°17'0 0.0
2015-May-20 10:30N 24°25' E 118°17'0 0.0
2015-May-20 09:33N 24°25' E 118°17'0 0.0
2015-May-20 08:20N 24°25' E 118°17'0 0.0
2015-May-20 07:24N 24°25' E 118°17'910.7
2015-May-20 06:33N 24°32' E 118°11'0 0.2
2015-May-20 05:33N 24°32' E 118°11'9 8.4
2015-May-20 04:30N 24°25' E 118°17'0 0.1
2015-May-20 03:33N 24°25' E 118°17'0 0.0
2015-May-20 02:30N 24°25' E 118°17'1 1.3
2015-May-20 01:33N 24°26' E 118°17'8 7.6
2015-May-20 00:32N 24°32' E 118°12'9 8.5
2015-May-19 23:30N 24°25' E 118°17'0 0.0
2015-May-19 22:33N 24°25' E 118°17'0 0.0
2015-May-19 21:33N 24°25' E 118°17'0 0.0
2015-May-19 20:32N 24°25' E 118°17'0 0.0
2015-May-19 19:33N 24°25' E 118°17'0 0.0
2015-May-19 18:32N 24°25' E 118°17'0 0.0
2015-May-19 17:33N 24°25' E 118°17'0 0.0
2015-May-19 16:33N 24°25' E 118°17'0 0.0
2015-May-19 15:31N 24°25' E 118°17'0 0.0
2015-May-19 14:30N 24°25' E 118°17'7 1.9
2015-May-19 10:32N 24°31' E 118°13'7 6.7
2015-May-19 09:33N 24°26' E 118°17'1 0.5
2015-May-19 08:31N 24°25' E 118°17'0 0.0
2015-May-19 07:33N 24°25' E 118°17'0 0.0
2015-May-19 06:33N 24°25' E 118°17'0 0.0
2015-May-19 05:33N 24°25' E 118°17'0 0.0
2015-May-19 04:32N 24°25' E 118°17'0 0.0
2015-May-19 03:31N 24°25' E 118°17'0 0.0
2015-May-19 02:33N 24°25' E 118°17'0 0.0
2015-May-19 01:33N 24°25' E 118°17'0 0.0
2015-May-19 00:33N 24°25' E 118°17'0 0.0
2015-May-18 23:32N 24°25' E 118°17'0 0.0
2015-May-18 22:31N 24°25' E 118°17'0 0.0
2015-May-18 21:32N 24°25' E 118°17'0 0.0
2015-May-18 20:33N 24°25' E 118°17'0 0.0
2015-May-18 19:33N 24°25' E 118°17'0 0.0
2015-May-18 18:33N 24°25' E 118°17'0 0.0
2015-May-18 17:33N 24°25' E 118°17'0 0.0
2015-May-18 16:32N 24°25' E 118°17'0 0.0
2015-May-18 15:33N 24°25' E 118°17'0 0.0
2015-May-18 14:33N 24°25' E 118°17'0 0.0
2015-May-18 10:33N 24°25' E 118°17'0 0.5
2015-May-18 09:33N 24°25' E 118°17'9 8.4
2015-May-18 08:29N 24°32' E 118°11'9 9.5
2015-May-18 07:33N 24°25' E 118°17'0 0.0
2015-May-18 06:25N 24°25' E 118°17'0 0.5
2015-May-18 05:27N 24°25' E 118°17'0 0.0
2015-May-18 04:29N 24°25' E 118°17'9 9.0
2015-May-18 03:33N 24°32' E 118°11'1 1.1
2015-May-18 02:32N 24°32' E 118°12'8 8.0
2015-May-18 01:31N 24°25' E 118°17'0 0.4
2015-May-18 00:30N 24°25' E 118°17'0 0.0
2015-May-17 23:33N 24°25' E 118°17'0 0.0
2015-May-17 22:33N 24°25' E 118°17'0 0.0
2015-May-17 21:33N 24°25' E 118°17'0 0.0
2015-May-17 20:33N 24°25' E 118°17'0 0.0
2015-May-17 19:34N 24°25' E 118°17'0 0.0
2015-May-17 18:33N 24°25' E 118°17'0 0.0
2015-May-17 17:33N 24°25' E 118°17'0 0.0
2015-May-17 16:32N 24°25' E 118°17'0 0.0
2015-May-17 15:33N 24°25' E 118°17'0 0.0
2015-May-17 14:33N 24°25' E 118°17'0 0.0
2015-May-17 10:33N 24°25' E 118°17'0 0.0
2015-May-17 09:33N 24°25' E 118°17'0 0.0
2015-May-17 08:33N 24°25' E 118°17'9 8.7
2015-May-17 07:33N 24°32' E 118°11'2 2.4
2015-May-17 06:33N 24°31' E 118°13'6 1.5
2015-May-17 02:32N 24°26' E 118°17'8 8.2
2015-May-17 01:33N 24°32' E 118°12'9 8.8
2015-May-17 00:33N 24°25' E 118°17'0 0.0
2015-May-16 23:13N 24°25' E 118°17'0 0.0
2015-May-16 22:33N 24°25' E 118°17'0 0.0
2015-May-16 21:33N 24°25' E 118°17'0 0.0
2015-May-16 20:33N 24°25' E 118°17'0 0.0
2015-May-16 19:33N 24°25' E 118°17'0 0.0
2015-May-16 18:33N 24°25' E 118°17'0 0.0
2015-May-16 17:33N 24°25' E 118°17'0 0.0
2015-May-16 16:32N 24°25' E 118°17'0 0.0
2015-May-16 15:33N 24°25' E 118°17'0 0.0
2015-May-16 14:33N 24°25' E 118°17'0 0.0
2015-May-16 10:33N 24°25' E 118°17'9 8.2
2015-May-16 09:28N 24°32' E 118°11'9 9.5
2015-May-16 08:33N 24°25' E 118°17'0 0.2
2015-May-16 07:33N 24°25' E 118°17'0 0.0
2015-May-16 06:24N 24°25' E 118°17'9 9.9
2015-May-16 05:31N 24°32' E 118°11'1 1.4
2015-May-16 04:33N 24°32' E 118°13'8 7.8
2015-May-16 03:33N 24°25' E 118°17'0 0.1
2015-May-16 02:32N 24°25' E 118°17'0 0.0
2015-May-16 01:28N 24°25' E 118°17'0 0.0
2015-May-16 00:30N 24°25' E 118°17'0 0.0
2015-May-15 23:33N 24°25' E 118°17'0 0.0
2015-May-15 22:33N 24°25' E 118°17'0 0.0
2015-May-15 18:10N 24°25' E 118°17'0 0.0
2015-May-15 17:33N 24°25' E 118°17'0 0.0
2015-May-15 16:32N 24°25' E 118°17'0 0.0
2015-May-15 15:29N 24°25' E 118°17'0 0.0
2015-May-15 14:32N 24°25' E 118°17'0 0.0
2015-May-15 10:29N 24°25' E 118°17'0 0.0
2015-May-15 09:26N 24°25' E 118°17'0 0.0
2015-May-15 08:33N 24°25' E 118°17'8 8.3
2015-May-15 07:33N 24°32' E 118°12'0 0.4
2015-May-15 06:33N 24°32' E 118°13'8 7.2
2015-May-15 05:27N 24°25' E 118°17'0 0.5
2015-May-15 04:32N 24°25' E 118°17'0 0.0
2015-May-15 03:33N 24°25' E 118°17'0 0.2
2015-May-15 01:32N 24°25' E 118°17'0 0.0
2015-May-15 00:32N 24°25' E 118°17'0 0.0
2015-May-14 23:32N 24°25' E 118°17'0 0.0
2015-May-14 22:33N 24°25' E 118°17'0 0.0
2015-May-14 21:33N 24°25' E 118°17'0 0.0
2015-May-14 20:32N 24°25' E 118°17'0 0.0
2015-May-14 19:26N 24°25' E 118°17'0 0.0
2015-May-14 18:33N 24°25' E 118°17'0 0.0
2015-May-14 17:33N 24°25' E 118°17'0 0.0
2015-May-14 16:32N 24°25' E 118°17'0 0.0
2015-May-14 15:17N 24°25' E 118°17'0 0.0
2015-May-14 14:33N 24°25' E 118°17'7 1.8
2015-May-14 10:33N 24°31' E 118°13'7 7.1
2015-May-14 09:32N 24°25' E 118°17'0 0.4
2015-May-14 08:28N 24°25' E 118°17'0 0.0
2015-May-14 07:33N 24°25' E 118°17'9 4.3
2015-May-14 05:33N 24°32' E 118°11'9 8.5
2015-May-14 04:30N 24°25' E 118°17'9 9.5
2015-May-14 03:33N 24°32' E 118°11'3 2.6
2015-May-14 02:32N 24°31' E 118°14'7 6.7
2015-May-14 01:32N 24°25' E 118°17'0 0.1
2015-May-14 00:30N 24°25' E 118°17'0 0.0
2015-May-13 22:33N 24°25' E 118°17'0 0.0
2015-May-13 21:32N 24°25' E 118°17'0 0.0
2015-May-13 20:33N 24°25' E 118°17'0 0.0
2015-May-13 19:21N 24°25' E 118°17'0 0.0
2015-May-13 17:32N 24°25' E 118°17'0 0.0
2015-May-13 16:33N 24°25' E 118°17'0 0.0
2015-May-13 15:31N 24°25' E 118°17'0 0.0
2015-May-13 14:31N 24°25' E 118°17'0 0.0
2015-May-13 10:31N 24°25' E 118°17'  
Track history (hours):
 
Tides and Currents Weather Stations Pressure Air Temp Water Temp Dewpoint Dewpoint Depression Visibility Wind Speed Wind Dir Waves Ship Positions

Marco Polo

Last reported at 2015-May-23 10:31 UTC. Time now 2015-May-23 13:27 UTC.
Position N 24°25' E 118°17'.

Length 32 m.

MMSI: 416000256.

Date/timePositionNaut miles runAvg speedWind from/ knotsBaromVisibWave heightAir tempDewpointWater temp
2015-May-23 10:31N 24°25' E 118°17'0 0.0
2015-May-23 09:33N 24°25' E 118°17'9 8.7
2015-May-23 08:31N 24°32' E 118°11'9 9.1
2015-May-23 07:32N 24°25' E 118°17'0 0.0
2015-May-23 06:33N 24°25' E 118°17'8 7.6
2015-May-23 05:33N 24°31' E 118°13'2 1.6
2015-May-23 04:32N 24°32' E 118°11'9 9.2
2015-May-23 03:33N 24°25' E 118°17'0 0.0
2015-May-23 02:33N 24°25' E 118°17'0 0.0
2015-May-22 08:17N 24°25' E 118°17'810.2
2015-May-22 07:32N 24°32' E 118°12'1 1.3
2015-May-22 06:33N 24°32' E 118°11'9 8.9
2015-May-22 05:33N 24°25' E 118°17'0 0.4
2015-May-22 04:25N 24°25' E 118°17'0 0.0
2015-May-22 03:31N 24°25' E 118°17'3 2.7
2015-May-22 02:32N 24°28' E 118°17'5 5.1
2015-May-22 01:33N 24°32' E 118°13'8 8.0
2015-May-22 00:33N 24°25' E 118°17'0 0.0
2015-May-21 23:33N 24°25' E 118°17'0 0.0
2015-May-21 22:31N 24°25' E 118°17'0 0.0
2015-May-21 21:32N 24°25' E 118°17'0 0.0
2015-May-21 20:33N 24°25' E 118°17'0 0.0
2015-May-21 19:32N 24°25' E 118°17'0 0.0
2015-May-21 18:33N 24°25' E 118°17'0 0.0
2015-May-21 17:33N 24°25' E 118°17'0 0.0
2015-May-21 16:32N 24°25' E 118°17'0 0.0
2015-May-21 15:33N 24°25' E 118°17'0 0.0
2015-May-21 14:32N 24°25' E 118°17'0 0.0
2015-May-21 10:31N 24°25' E 118°17'9 9.2
2015-May-21 09:33N 24°32' E 118°11'9 8.5
2015-May-21 08:31N 24°25' E 118°17'0 0.3
2015-May-21 07:32N 24°25' E 118°17'0 0.1
2015-May-21 06:33N 24°25' E 118°17'0 0.0
2015-May-21 05:33N 24°25' E 118°17'0 0.0
2015-May-21 04:33N 24°25' E 118°17'8 7.5
2015-May-21 03:32N 24°32' E 118°12'0 0.5
2015-May-21 02:33N 24°32' E 118°12'8 8.3
2015-May-21 01:32N 24°25' E 118°17'0 0.1
2015-May-21 00:33N 24°25' E 118°17'0 0.0
2015-May-20 23:31N 24°25' E 118°17'0 0.0
2015-May-20 22:33N 24°25' E 118°17'0 0.0
2015-May-20 21:32N 24°25' E 118°17'0 0.0
2015-May-20 20:33N 24°25' E 118°17'0 0.0
2015-May-20 19:33N 24°25' E 118°17'0 0.0
2015-May-20 18:32N 24°25' E 118°17'0 0.0
2015-May-20 17:30N 24°25' E 118°17'0 0.0
2015-May-20 16:33N 24°25' E 118°17'0 0.0
2015-May-20 15:32N 24°25' E 118°17'0 0.0
2015-May-20 14:32N 24°25' E 118°17'0 0.0
2015-May-20 10:30N 24°25' E 118°17'0 0.0
2015-May-20 09:33N 24°25' E 118°17'0 0.0
2015-May-20 08:20N 24°25' E 118°17'0 0.0
2015-May-20 07:24N 24°25' E 118°17'910.7
2015-May-20 06:33N 24°32' E 118°11'0 0.2
2015-May-20 05:33N 24°32' E 118°11'9 8.4
2015-May-20 04:30N 24°25' E 118°17'0 0.1
2015-May-20 03:33N 24°25' E 118°17'0 0.0
2015-May-20 02:30N 24°25' E 118°17'1 1.3
2015-May-20 01:33N 24°26' E 118°17'8 7.6
2015-May-20 00:32N 24°32' E 118°12'9 8.5
2015-May-19 23:30N 24°25' E 118°17'0 0.0
2015-May-19 22:33N 24°25' E 118°17'0 0.0
2015-May-19 21:33N 24°25' E 118°17'0 0.0
2015-May-19 20:32N 24°25' E 118°17'0 0.0
2015-May-19 19:33N 24°25' E 118°17'0 0.0
2015-May-19 18:32N 24°25' E 118°17'0 0.0
2015-May-19 17:33N 24°25' E 118°17'0 0.0
2015-May-19 16:33N 24°25' E 118°17'0 0.0
2015-May-19 15:31N 24°25' E 118°17'0 0.0
2015-May-19 14:30N 24°25' E 118°17'7 1.9
2015-May-19 10:32N 24°31' E 118°13'7 6.7
2015-May-19 09:33N 24°26' E 118°17'1 0.5
2015-May-19 08:31N 24°25' E 118°17'0 0.0
2015-May-19 07:33N 24°25' E 118°17'0 0.0
2015-May-19 06:33N 24°25' E 118°17'0 0.0
2015-May-19 05:33N 24°25' E 118°17'0 0.0
2015-May-19 04:32N 24°25' E 118°17'0 0.0
2015-May-19 03:31N 24°25' E 118°17'0 0.0
2015-May-19 02:33N 24°25' E 118°17'0 0.0
2015-May-19 01:33N 24°25' E 118°17'0 0.0
2015-May-19 00:33N 24°25' E 118°17'0 0.0
2015-May-18 23:32N 24°25' E 118°17'0 0.0
2015-May-18 22:31N 24°25' E 118°17'0 0.0
2015-May-18 21:32N 24°25' E 118°17'0 0.0
2015-May-18 20:33N 24°25' E 118°17'0 0.0
2015-May-18 19:33N 24°25' E 118°17'0 0.0
2015-May-18 18:33N 24°25' E 118°17'0 0.0
2015-May-18 17:33N 24°25' E 118°17'0 0.0
2015-May-18 16:32N 24°25' E 118°17'0 0.0
2015-May-18 15:33N 24°25' E 118°17'0 0.0
2015-May-18 14:33N 24°25' E 118°17'0 0.0
2015-May-18 10:33N 24°25' E 118°17'0 0.5
2015-May-18 09:33N 24°25' E 118°17'9 8.4
2015-May-18 08:29N 24°32' E 118°11'9 9.5
2015-May-18 07:33N 24°25' E 118°17'0 0.0
2015-May-18 06:25N 24°25' E 118°17'0 0.5
2015-May-18 05:27N 24°25' E 118°17'0 0.0
2015-May-18 04:29N 24°25' E 118°17'9 9.0
2015-May-18 03:33N 24°32' E 118°11'1 1.1
2015-May-18 02:32N 24°32' E 118°12'8 8.0
2015-May-18 01:31N 24°25' E 118°17'0 0.4
2015-May-18 00:30N 24°25' E 118°17'0 0.0
2015-May-17 23:33N 24°25' E 118°17'0 0.0
2015-May-17 22:33N 24°25' E 118°17'0 0.0
2015-May-17 21:33N 24°25' E 118°17'0 0.0
2015-May-17 20:33N 24°25' E 118°17'0 0.0
2015-May-17 19:34N 24°25' E 118°17'0 0.0
2015-May-17 18:33N 24°25' E 118°17'0 0.0
2015-May-17 17:33N 24°25' E 118°17'0 0.0
2015-May-17 16:32N 24°25' E 118°17'0 0.0
2015-May-17 15:33N 24°25' E 118°17'0 0.0
2015-May-17 14:33N 24°25' E 118°17'0 0.0
2015-May-17 10:33N 24°25' E 118°17'0 0.0
2015-May-17 09:33N 24°25' E 118°17'0 0.0
2015-May-17 08:33N 24°25' E 118°17'9 8.7
2015-May-17 07:33N 24°32' E 118°11'2 2.4
2015-May-17 06:33N 24°31' E 118°13'6 1.5
2015-May-17 02:32N 24°26' E 118°17'8 8.2
2015-May-17 01:33N 24°32' E 118°12'9 8.8
2015-May-17 00:33N 24°25' E 118°17'0 0.0
2015-May-16 23:13N 24°25' E 118°17'0 0.0
2015-May-16 22:33N 24°25' E 118°17'0 0.0
2015-May-16 21:33N 24°25' E 118°17'0 0.0
2015-May-16 20:33N 24°25' E 118°17'0 0.0
2015-May-16 19:33N 24°25' E 118°17'0 0.0
2015-May-16 18:33N 24°25' E 118°17'0 0.0
2015-May-16 17:33N 24°25' E 118°17'0 0.0
2015-May-16 16:32N 24°25' E 118°17'0 0.0
2015-May-16 15:33N 24°25' E 118°17'0 0.0
2015-May-16 14:33N 24°25' E 118°17'0 0.0
2015-May-16 10:33N 24°25' E 118°17'9 8.2
2015-May-16 09:28N 24°32' E 118°11'9 9.5
2015-May-16 08:33N 24°25' E 118°17'0 0.2
2015-May-16 07:33N 24°25' E 118°17'0 0.0
2015-May-16 06:24N 24°25' E 118°17'9 9.9
2015-May-16 05:31N 24°32' E 118°11'1 1.4
2015-May-16 04:33N 24°32' E 118°13'8 7.8
2015-May-16 03:33N 24°25' E 118°17'0 0.1
2015-May-16 02:32N 24°25' E 118°17'0 0.0
2015-May-16 01:28N 24°25' E 118°17'0 0.0
2015-May-16 00:30N 24°25' E 118°17'0 0.0
2015-May-15 23:33N 24°25' E 118°17'0 0.0
2015-May-15 22:33N 24°25' E 118°17'0 0.0
2015-May-15 18:10N 24°25' E 118°17'0 0.0
2015-May-15 17:33N 24°25' E 118°17'0 0.0
2015-May-15 16:32N 24°25' E 118°17'0 0.0
2015-May-15 15:29N 24°25' E 118°17'0 0.0
2015-May-15 14:32N 24°25' E 118°17'0 0.0
2015-May-15 10:29N 24°25' E 118°17'0 0.0
2015-May-15 09:26N 24°25' E 118°17'0 0.0
2015-May-15 08:33N 24°25' E 118°17'8 8.3
2015-May-15 07:33N 24°32' E 118°12'0 0.4
2015-May-15 06:33N 24°32' E 118°13'8 7.2
2015-May-15 05:27N 24°25' E 118°17'0 0.5
2015-May-15 04:32N 24°25' E 118°17'0 0.0
2015-May-15 03:33N 24°25' E 118°17'0 0.2
2015-May-15 01:32N 24°25' E 118°17'0 0.0
2015-May-15 00:32N 24°25' E 118°17'0 0.0
2015-May-14 23:32N 24°25' E 118°17'0 0.0
2015-May-14 22:33N 24°25' E 118°17'0 0.0
2015-May-14 21:33N 24°25' E 118°17'0 0.0
2015-May-14 20:32N 24°25' E 118°17'0 0.0
2015-May-14 19:26N 24°25' E 118°17'0 0.0
2015-May-14 18:33N 24°25' E 118°17'0 0.0
2015-May-14 17:33N 24°25' E 118°17'0 0.0
2015-May-14 16:32N 24°25' E 118°17'0 0.0
2015-May-14 15:17N 24°25' E 118°17'0 0.0
2015-May-14 14:33N 24°25' E 118°17'7 1.8
2015-May-14 10:33N 24°31' E 118°13'7 7.1
2015-May-14 09:32N 24°25' E 118°17'0 0.4
2015-May-14 08:28N 24°25' E 118°17'0 0.0
2015-May-14 07:33N 24°25' E 118°17'9 4.3
2015-May-14 05:33N 24°32' E 118°11'9 8.5
2015-May-14 04:30N 24°25' E 118°17'9 9.5
2015-May-14 03:33N 24°32' E 118°11'3 2.6
2015-May-14 02:32N 24°31' E 118°14'7 6.7
2015-May-14 01:32N 24°25' E 118°17'0 0.1
2015-May-14 00:30N 24°25' E 118°17'0 0.0
2015-May-13 22:33N 24°25' E 118°17'0 0.0
2015-May-13 21:32N 24°25' E 118°17'0 0.0
2015-May-13 20:33N 24°25' E 118°17'0 0.0
2015-May-13 19:21N 24°25' E 118°17'0 0.0
2015-May-13 17:32N 24°25' E 118°17'0 0.0
2015-May-13 16:33N 24°25' E 118°17'0 0.0
2015-May-13 15:31N 24°25' E 118°17'0 0.0
2015-May-13 14:31N 24°25' E 118°17'0 0.0
2015-May-13 10:31N 24°25' E 118°17'  

Dump ship's entire track history